Time;durP1;ratioP1;P1;durP2;ratioP2;P2;SDS_P1;SDS_P2;PMS_P1;PMS_P2;Temp;Humidity;BMP_temperature;BMP_pressure;BME280_temperature;BME280_humidity;BME280_pressure;Samples;Min_cycle;Max_cycle;Signal;HPM_P1;HPM_P2
2022/06/16 00:02:16;;;;;;;8.35;5.50;;;28.70;1.00;;;;;;5093159;28;20488;-44
2022/06/16 00:04:46;;;;;;;12.00;5.47;;;28.70;1.00;;;;;;5078215;28;20028;-45
2022/06/16 00:07:13;;;;;;;7.90;5.78;;;28.60;1.00;;;;;;5083109;28;20489;-44
2022/06/16 00:09:39;;;;;;;5.78;4.50;;;28.80;1.00;;;;;;5090936;28;20036;-44
2022/06/16 00:12:05;;;;;;;5.97;5.40;;;28.50;1.00;;;;;;5085173;28;20428;-46
2022/06/16 00:14:30;;;;;;;5.70;5.10;;;28.50;1.00;;;;;;5079870;28;20055;-44
2022/06/16 00:16:56;;;;;;;6.82;6.22;;;28.70;1.00;;;;;;5057710;28;20039;-48
2022/06/16 00:19:22;;;;;;;7.35;5.32;;;28.60;1.00;;;;;;5090764;28;20040;-45
2022/06/16 00:21:47;;;;;;;7.70;6.22;;;28.80;1.00;;;;;;5089126;28;20024;-46
2022/06/16 00:24:13;;;;;;;9.02;7.10;;;28.60;1.00;;;;;;5072641;28;20162;-48
2022/06/16 00:26:39;;;;;;;10.40;6.20;;;28.70;1.00;;;;;;5089809;28;20052;-47
2022/06/16 00:29:04;;;;;;;10.25;5.65;;;28.50;1.00;;;;;;5092843;28;20043;-43
2022/06/16 00:31:30;;;;;;;5.85;5.35;;;28.60;1.00;;;;;;5091589;28;20032;-48
2022/06/16 00:33:55;;;;;;;6.93;5.22;;;28.50;1.00;;;;;;5074220;28;20070;-51
2022/06/16 00:36:21;;;;;;;4.80;4.35;;;28.50;1.00;;;;;;5086774;28;20373;-49
2022/06/16 00:38:47;;;;;;;5.97;5.18;;;28.50;1.00;;;;;;5090655;28;20107;-48
2022/06/16 00:54:59;;;;;;;5.93;5.43;;;28.60;1.00;;;;;;5075569;28;20440;-44
2022/06/16 00:57:46;;;;;;;6.30;5.10;;;28.40;1.00;;;;;;5072645;28;20378;-43
2022/06/16 01:02:42;;;;;;;10.13;6.18;;;28.20;1.00;;;;;;5082313;28;20089;-44
2022/06/16 01:05:08;;;;;;;7.63;5.88;;;28.20;1.00;;;;;;5073570;28;20469;-44
2022/06/16 01:07:36;;;;;;;6.78;6.10;;;28.30;1.00;;;;;;5090124;28;20154;-48
2022/06/16 01:10:04;;;;;;;7.30;5.57;;;28.60;1.00;;;;;;5088260;28;20028;-43
2022/06/16 01:15:54;;;;;;;6.85;6.25;;;28.30;1.00;;;;;;5085510;28;20047;-45
2022/06/16 01:18:32;;;;;;;6.40;5.57;;;28.30;1.00;;;;;;5081407;28;21888;-43
2022/06/16 01:21:18;;;;;;;6.03;5.43;;;28.10;1.00;;;;;;5094728;28;20032;-44
2022/06/16 01:23:50;;;;;;;6.72;5.95;;;28.10;1.00;;;;;;5079623;28;20470;-44
2022/06/16 01:26:37;;;;;;;7.75;5.07;;;28.30;1.00;;;;;;5092323;28;20127;-43
2022/06/16 01:29:19;;;;;;;6.35;5.65;;;28.30;1.00;;;;;;5094674;28;20059;-43
2022/06/16 01:32:11;;;;;;;6.00;5.53;;;28.20;1.00;;;;;;5091049;28;20028;-44
2022/06/16 01:34:52;;;;;;;8.15;6.30;;;28.30;1.00;;;;;;5080299;28;20020;-43
2022/06/16 01:37:23;;;;;;;5.93;5.00;;;28.20;1.00;;;;;;5084055;28;20020;-44
2022/06/16 01:40:05;;;;;;;6.38;5.10;;;28.20;1.00;;;;;;5083880;28;20449;-44
2022/06/16 01:43:07;;;;;;;8.07;5.40;;;28.20;1.00;;;;;;5075572;28;20024;-48
2022/06/16 01:45:45;;;;;;;6.10;4.78;;;28.20;1.00;;;;;;5084822;28;20588;-46
2022/06/16 01:48:13;;;;;;;7.40;5.57;;;28.30;1.00;;;;;;5077792;28;20386;-47
2022/06/16 01:50:54;;;;;;;5.50;5.03;;;28.20;1.00;;;;;;5085814;28;20028;-43
2022/06/16 01:53:29;;;;;;;7.13;5.28;;;28.30;1.00;;;;;;5087939;28;20033;-44
2022/06/16 01:56:04;;;;;;;5.90;4.78;;;28.10;1.00;;;;;;5084706;28;20032;-47
2022/06/16 01:58:34;;;;;;;6.22;5.50;;;28.30;1.00;;;;;;5076386;28;20024;-46
2022/06/16 02:07:50;;;;;;;8.10;5.38;;;28.00;1.00;;;;;;5080404;28;20047;-43
2022/06/16 02:10:21;;;;;;;7.05;5.30;;;28.00;1.00;;;;;;5056863;28;20032;-48
2022/06/16 02:12:58;;;;;;;5.93;5.43;;;27.80;1.00;;;;;;5067843;28;20064;-44
2022/06/16 02:15:52;;;;;;;6.28;5.43;;;28.00;1.00;;;;;;5059479;28;20480;-46
2022/06/16 02:18:22;;;;;;;6.03;5.43;;;28.00;1.00;;;;;;5080093;28;20055;-43
2022/06/16 02:20:53;;;;;;;5.40;4.60;;;28.00;1.00;;;;;;5058025;28;20500;-45
2022/06/16 02:23:20;;;;;;;6.55;5.47;;;28.00;1.00;;;;;;5082907;28;20100;-43
2022/06/16 02:25:50;;;;;;;8.80;5.10;;;27.90;1.00;;;;;;5089208;28;20111;-44
2022/06/16 02:28:16;;;;;;;7.32;5.85;;;28.00;1.00;;;;;;5065198;28;20028;-48
2022/06/16 02:31:12;;;;;;;5.10;4.65;;;28.10;1.00;;;;;;5056406;28;20032;-45
2022/06/16 02:33:38;;;;;;;6.95;5.47;;;27.90;1.00;;;;;;5074540;28;20029;-44
2022/06/16 02:36:24;;;;;;;7.18;5.63;;;27.80;1.00;;;;;;5090022;28;20024;-46
2022/06/16 02:39:31;;;;;;;8.52;4.80;;;27.80;1.00;;;;;;5082301;28;20505;-45
2022/06/16 02:42:27;;;;;;;5.85;4.80;;;27.80;1.00;;;;;;5047531;28;20459;-43
2022/06/16 02:45:30;;;;;;;5.82;5.30;;;27.80;1.00;;;;;;5074647;28;20027;-44
2022/06/16 02:48:17;;;;;;;6.60;5.13;;;27.60;1.00;;;;;;5076229;28;20715;-43
2022/06/16 02:51:00;;;;;;;5.53;4.97;;;27.50;1.00;;;;;;5081475;28;20025;-43
2022/06/16 02:53:46;;;;;;;5.78;4.95;;;27.70;1.00;;;;;;5074246;28;20514;-48
2022/06/16 02:56:20;;;;;;;5.50;5.00;;;27.50;1.00;;;;;;5075537;28;20031;-49
2022/06/16 02:58:48;;;;;;;6.10;5.05;;;27.40;1.00;;;;;;5067349;28;20478;-49
2022/06/16 03:01:15;;;;;;;8.57;5.20;;;27.50;1.00;;;;;;5076217;28;20047;-50
2022/06/16 03:03:40;;;;;;;6.95;5.50;;;27.30;1.00;;;;;;5076578;28;20378;-50
2022/06/16 03:06:06;;;;;;;6.50;5.00;;;27.30;1.00;;;;;;5076036;28;20119;-46
2022/06/16 03:08:38;;;;;;;5.80;5.18;;;27.40;1.00;;;;;;5074440;28;20040;-44
2022/06/16 03:11:04;;;;;;;7.28;5.32;;;27.30;1.00;;;;;;5073810;28;20773;-43
2022/06/16 03:13:32;;;;;;;6.05;5.20;;;27.20;1.00;;;;;;5087937;28;20020;-44
2022/06/16 03:15:59;;;;;;;6.68;4.97;;;27.30;1.00;;;;;;5073861;28;20028;-46
2022/06/16 03:18:25;;;;;;;6.80;5.35;;;27.30;1.00;;;;;;5077362;28;20099;-43
2022/06/16 03:20:52;;;;;;;5.43;4.95;;;27.40;1.00;;;;;;5073162;28;20033;-49
2022/06/16 03:23:19;;;;;;;5.70;5.20;;;27.40;1.00;;;;;;5078823;28;20021;-44
2022/06/16 03:25:45;;;;;;;5.72;5.13;;;27.30;1.00;;;;;;5073672;28;20131;-45
2022/06/16 03:28:11;;;;;;;4.60;4.20;;;27.20;1.00;;;;;;5079003;28;20494;-44
2022/06/16 03:30:39;;;;;;;7.32;4.85;;;27.30;1.00;;;;;;5073813;28;20103;-44
2022/06/16 03:33:07;;;;;;;5.32;4.82;;;27.30;1.00;;;;;;5082742;28;20089;-43
2022/06/16 03:35:33;;;;;;;6.68;5.78;;;27.20;1.00;;;;;;5090988;28;20051;-46
2022/06/16 03:38:00;;;;;;;6.13;5.50;;;27.30;1.00;;;;;;5084810;28;20078;-44
2022/06/16 03:40:26;;;;;;;5.25;4.75;;;27.20;1.00;;;;;;5063448;28;20086;-43
2022/06/16 03:42:52;;;;;;;7.30;5.07;;;27.10;1.00;;;;;;5084971;28;20036;-47
2022/06/16 03:45:18;;;;;;;6.95;4.70;;;27.30;1.00;;;;;;5073195;28;20108;-45
2022/06/16 03:47:43;;;;;;;4.78;4.43;;;27.10;1.00;;;;;;5085519;28;20093;-45
2022/06/16 03:50:13;;;;;;;6.60;4.65;;;27.10;1.00;;;;;;5067237;28;20029;-44
2022/06/16 03:52:39;;;;;;;8.48;4.85;;;27.00;1.00;;;;;;5086274;28;20039;-45
2022/06/16 03:55:05;;;;;;;5.25;4.57;;;27.20;1.00;;;;;;5073225;28;20021;-44
2022/06/16 03:57:31;;;;;;;5.57;5.18;;;27.30;1.00;;;;;;5085138;28;20077;-45
2022/06/16 03:59:56;;;;;;;6.85;5.68;;;27.40;1.00;;;;;;5056464;28;20028;-46
2022/06/16 04:02:22;;;;;;;10.90;5.55;;;27.30;1.00;;;;;;5054708;28;20033;-46
2022/06/16 04:04:49;;;;;;;6.55;5.25;;;27.30;1.00;;;;;;5073194;28;20025;-48
2022/06/16 04:07:14;;;;;;;5.53;5.00;;;27.10;1.00;;;;;;5073353;28;20112;-49
2022/06/16 04:09:40;;;;;;;5.95;5.13;;;27.20;1.00;;;;;;5072678;28;20175;-43
2022/06/16 04:12:06;;;;;;;5.88;5.10;;;27.10;1.00;;;;;;5073778;28;20387;-43
2022/06/16 04:14:32;;;;;;;5.72;4.90;;;27.30;1.00;;;;;;5072989;28;20036;-49
2022/06/16 04:16:58;;;;;;;8.30;4.90;;;27.10;1.00;;;;;;5074143;28;20028;-47
2022/06/16 04:19:24;;;;;;;5.50;4.85;;;27.10;1.00;;;;;;5072805;28;20048;-48
2022/06/16 04:21:52;;;;;;;5.35;4.88;;;27.10;1.00;;;;;;5074805;28;20418;-44
2022/06/16 04:24:19;;;;;;;7.00;4.78;;;27.00;1.00;;;;;;5073114;28;20070;-43
2022/06/16 04:26:45;;;;;;;5.60;5.10;;;27.00;1.00;;;;;;5085069;28;20116;-44
2022/06/16 04:29:12;;;;;;;9.68;5.68;;;27.00;1.00;;;;;;5072409;28;20103;-46
2022/06/16 04:31:38;;;;;;;6.78;5.70;;;26.90;1.00;;;;;;5077865;28;20485;-43
2022/06/16 04:34:04;;;;;;;6.78;5.15;;;26.70;1.00;;;;;;5072094;28;20388;-43
2022/06/16 04:36:30;;;;;;;5.93;4.95;;;26.70;1.00;;;;;;5075979;28;20024;-43
2022/06/16 04:38:57;;;;;;;6.75;5.53;;;26.90;1.00;;;;;;5091537;28;20016;-43
2022/06/16 04:41:23;;;;;;;6.85;6.13;;;26.90;1.00;;;;;;5091352;28;20118;-43
2022/06/16 04:43:49;;;;;;;8.27;6.50;;;26.90;1.00;;;;;;5074805;28;20020;-43
2022/06/16 04:46:16;;;;;;;8.55;6.13;;;27.10;1.00;;;;;;5085307;28;20035;-46
2022/06/16 04:48:43;;;;;;;11.02;6.85;;;27.00;1.00;;;;;;5090936;28;20032;-46
2022/06/16 04:51:10;;;;;;;11.77;6.90;;;26.90;1.00;;;;;;5074221;28;20020;-43
2022/06/16 04:53:35;;;;;;;6.30;5.70;;;26.70;1.00;;;;;;5084862;28;20546;-45
2022/06/16 04:56:02;;;;;;;7.20;5.97;;;26.80;1.00;;;;;;5076708;28;20116;-46
2022/06/16 04:58:29;;;;;;;6.78;5.18;;;27.00;1.00;;;;;;5079756;28;20032;-47
2022/06/16 05:00:56;;;;;;;6.03;5.45;;;26.80;1.00;;;;;;5093246;28;20073;-47
2022/06/16 05:03:23;;;;;;;6.18;5.72;;;27.00;1.00;;;;;;5082971;28;20458;-48
2022/06/16 05:05:49;;;;;;;7.55;5.85;;;26.80;1.00;;;;;;5086845;28;20032;-43
2022/06/16 05:08:17;;;;;;;6.78;6.13;;;26.90;1.00;;;;;;5088543;28;20439;-44
2022/06/16 05:10:44;;;;;;;9.23;6.22;;;26.90;1.00;;;;;;5083348;28;20032;-44
2022/06/16 05:13:10;;;;;;;8.88;6.20;;;26.90;1.00;;;;;;5081417;28;20028;-46
2022/06/16 05:15:36;;;;;;;10.38;6.20;;;26.80;1.00;;;;;;5081618;28;20027;-47
2022/06/16 05:18:02;;;;;;;9.77;6.53;;;27.00;1.00;;;;;;5083209;28;20056;-46
2022/06/16 05:20:28;;;;;;;8.90;6.25;;;26.90;1.00;;;;;;5074221;28;20386;-49
2022/06/16 05:22:54;;;;;;;7.60;6.72;;;27.10;1.00;;;;;;5076602;28;20028;-47
2022/06/16 05:25:19;;;;;;;9.35;7.15;;;26.90;1.00;;;;;;5075648;28;20024;-47
2022/06/16 05:27:45;;;;;;;8.57;6.63;;;27.10;1.00;;;;;;5067852;28;20019;-49
2022/06/16 05:30:11;;;;;;;7.93;6.40;;;27.20;1.00;;;;;;5056889;28;20780;-48
2022/06/16 05:32:36;;;;;;;9.43;6.22;;;27.00;1.00;;;;;;5088391;28;20039;-46
2022/06/16 05:35:03;;;;;;;10.57;6.13;;;27.10;1.00;;;;;;5075519;28;20094;-49
2022/06/16 05:37:30;;;;;;;8.35;5.28;;;27.10;1.00;;;;;;5078444;28;20039;-43
2022/06/16 05:39:56;;;;;;;8.45;6.43;;;27.10;1.00;;;;;;5067885;28;20043;-44
2022/06/16 05:42:21;;;;;;;6.82;6.13;;;27.20;1.00;;;;;;5078485;28;20623;-44
2022/06/16 05:44:47;;;;;;;11.18;6.68;;;27.10;1.00;;;;;;5082169;28;20035;-47
2022/06/16 05:47:13;;;;;;;6.82;5.88;;;27.20;1.00;;;;;;5086213;28;20020;-44
2022/06/16 05:49:39;;;;;;;9.70;7.18;;;27.20;1.00;;;;;;5081036;28;20073;-44
2022/06/16 05:52:13;;;;;;;8.30;6.85;;;27.20;1.00;;;;;;5086800;28;20036;-46
2022/06/16 05:54:40;;;;;;;7.28;6.50;;;27.20;1.00;;;;;;5077466;28;20028;-46
2022/06/16 05:57:08;;;;;;;8.20;6.68;;;27.40;1.00;;;;;;5077747;28;20028;-45
2022/06/16 05:59:35;;;;;;;7.88;6.43;;;27.30;1.00;;;;;;5062560;28;20039;-44
2022/06/16 06:02:01;;;;;;;6.38;5.53;;;27.30;1.00;;;;;;5086088;28;20029;-44
2022/06/16 06:04:27;;;;;;;7.43;6.72;;;27.20;1.00;;;;;;5062437;28;20028;-47
2022/06/16 06:06:53;;;;;;;8.52;6.68;;;27.40;1.00;;;;;;5079467;28;20028;-44
2022/06/16 06:17:32;;;;;;;;;;;27.50;1.00;;;;;;5075686;28;20055;-47
2022/06/16 06:19:58;;;;;;;10.07;6.88;;;27.70;1.00;;;;;;5085988;28;19908;-46
2022/06/16 06:22:27;;;;;;;7.63;6.93;;;27.50;1.00;;;;;;5092429;28;20028;-47
2022/06/16 06:24:56;;;;;;;10.07;7.25;;;27.50;1.00;;;;;;5094714;28;20050;-45
2022/06/16 06:27:41;;;;;;;8.95;7.53;;;27.60;1.00;;;;;;5091534;28;20035;-44
2022/06/16 06:30:11;;;;;;;10.48;8.82;;;27.70;1.00;;;;;;5080953;28;20027;-45
2022/06/16 06:32:47;;;;;;;10.35;9.30;;;27.80;1.00;;;;;;5087844;28;20358;-48
2022/06/16 06:35:13;;;;;;;9.88;8.50;;;27.70;1.00;;;;;;5074273;28;20032;-46
2022/06/16 06:37:39;;;;;;;11.23;8.90;;;27.70;1.00;;;;;;5079608;28;20028;-46
2022/06/16 06:40:06;;;;;;;11.07;9.98;;;27.60;1.00;;;;;;5072086;28;20041;-49
2022/06/16 06:42:32;;;;;;;10.45;8.98;;;27.70;1.00;;;;;;5059948;28;20025;-47
2022/06/16 06:44:58;;;;;;;10.25;9.25;;;27.80;1.00;;;;;;5094584;28;20077;-46
2022/06/16 06:47:31;;;;;;;11.48;9.05;;;27.70;1.00;;;;;;5082794;28;20443;-49
2022/06/16 06:49:57;;;;;;;13.13;9.73;;;27.80;1.00;;;;;;5074576;28;20024;-45
2022/06/16 06:52:23;;;;;;;11.18;9.45;;;27.70;1.00;;;;;;5086744;28;20024;-44
2022/06/16 06:54:49;;;;;;;11.88;10.60;;;27.80;1.00;;;;;;5073904;28;20508;-48
2022/06/16 06:57:20;;;;;;;11.32;9.65;;;27.80;1.00;;;;;;5087487;28;20118;-45
2022/06/16 06:59:45;;;;;;;13.10;10.43;;;27.80;1.00;;;;;;5075981;28;20031;-46
2022/06/16 07:02:13;;;;;;;11.15;9.98;;;27.90;1.00;;;;;;5074758;28;20111;-44
2022/06/16 07:04:40;;;;;;;10.57;9.57;;;27.80;1.00;;;;;;5077913;28;20390;-44
2022/06/16 07:07:06;;;;;;;13.10;8.30;;;27.80;1.00;;;;;;5067570;28;20419;-47
2022/06/16 07:09:31;;;;;;;9.43;7.60;;;27.90;1.00;;;;;;5079165;28;20071;-47
2022/06/16 07:11:57;;;;;;;10.43;9.43;;;27.80;1.00;;;;;;5075776;28;20470;-49
2022/06/16 07:14:23;;;;;;;16.88;9.32;;;27.90;1.00;;;;;;5073369;28;20040;-44
2022/06/16 07:16:50;;;;;;;13.02;9.60;;;27.80;1.00;;;;;;5074148;28;20150;-43
2022/06/16 07:19:17;;;;;;;9.35;7.80;;;27.90;1.00;;;;;;5090524;28;20027;-47
2022/06/16 07:21:42;;;;;;;10.25;9.23;;;28.10;1.00;;;;;;5091046;28;20051;-44
2022/06/16 07:24:08;;;;;;;13.27;9.23;;;28.00;1.00;;;;;;5092354;28;20024;-45
2022/06/16 07:26:34;;;;;;;9.93;8.95;;;28.10;1.00;;;;;;5093899;28;20031;-44
2022/06/16 07:29:00;;;;;;;9.82;8.93;;;28.00;1.00;;;;;;5076432;28;20028;-43
2022/06/16 07:31:27;;;;;;;11.18;9.95;;;28.20;1.00;;;;;;5092111;28;20039;-46
2022/06/16 07:33:54;;;;;;;12.85;9.32;;;28.00;1.00;;;;;;5092118;28;20035;-50
2022/06/16 07:36:19;;;;;;;11.65;9.35;;;28.00;1.00;;;;;;5073275;28;20115;-48
2022/06/16 07:38:46;;;;;;;11.00;8.82;;;28.00;1.00;;;;;;5087772;28;20123;-48
2022/06/16 07:43:56;;;;;;;13.20;8.55;;;28.10;1.00;;;;;;5087295;28;20534;-44
2022/06/16 07:46:21;;;;;;;11.57;9.73;;;28.10;1.00;;;;;;5073136;28;20028;-48
2022/06/16 07:48:47;;;;;;;11.57;9.25;;;28.10;1.00;;;;;;5073205;28;20028;-45
2022/06/16 07:51:12;;;;;;;11.07;9.70;;;28.20;1.00;;;;;;5072758;28;20115;-44
2022/06/16 07:53:38;;;;;;;16.05;9.18;;;28.30;1.00;;;;;;5082543;28;20056;-48
2022/06/16 07:56:04;;;;;;;10.05;8.98;;;28.20;1.00;;;;;;5072888;28;20025;-46
2022/06/16 07:58:31;;;;;;;10.60;8.80;;;28.40;1.00;;;;;;5082009;28;20028;-45
2022/06/16 08:00:59;;;;;;;11.35;9.68;;;28.30;1.00;;;;;;5070621;28;20394;-49
2022/06/16 08:03:27;;;;;;;10.43;8.43;;;28.30;1.00;;;;;;5057204;28;20040;-45
2022/06/16 08:05:54;;;;;;;11.02;9.18;;;28.30;1.00;;;;;;5063373;28;20024;-49
2022/06/16 08:08:23;;;;;;;11.52;8.23;;;28.50;1.00;;;;;;5075607;28;20052;-46
2022/06/16 08:10:50;;;;;;;12.18;9.35;;;28.50;1.00;;;;;;5072988;28;20028;-46
2022/06/16 08:13:16;;;;;;;11.63;9.00;;;28.50;1.00;;;;;;5076379;28;20025;-46
2022/06/16 08:15:46;;;;;;;13.80;10.65;;;28.70;1.00;;;;;;5073068;28;20036;-45
2022/06/16 08:18:17;;;;;;;9.50;8.07;;;28.60;1.00;;;;;;5077209;28;20022;-46
2022/06/16 08:20:43;;;;;;;11.32;9.13;;;28.50;1.00;;;;;;5085506;28;20101;-43
2022/06/16 08:23:10;;;;;;;14.43;9.55;;;28.80;1.00;;;;;;5091303;28;20119;-43
2022/06/16 08:25:36;;;;;;;11.10;8.98;;;28.60;1.00;;;;;;5090760;28;20085;-44
2022/06/16 08:28:04;;;;;;;10.00;9.05;;;28.70;1.00;;;;;;5061478;28;20021;-43
2022/06/16 08:30:31;;;;;;;10.05;9.05;;;28.90;1.00;;;;;;5059340;28;20020;-44
2022/06/16 08:32:57;;;;;;;10.45;9.55;;;28.90;1.00;;;;;;5075903;28;20032;-43
2022/06/16 08:35:23;;;;;;;11.77;9.23;;;28.80;1.00;;;;;;5072239;28;20024;-46
2022/06/16 08:37:49;;;;;;;10.77;9.68;;;29.00;1.00;;;;;;5080966;28;20047;-45
2022/06/16 08:40:17;;;;;;;10.52;9.43;;;28.70;1.00;;;;;;5083366;28;20508;-43
2022/06/16 08:42:52;;;;;;;13.02;10.77;;;28.70;1.00;;;;;;5073331;28;20032;-44
2022/06/16 08:45:36;;;;;;;12.68;11.38;;;28.80;1.00;;;;;;5054150;28;20078;-49
2022/06/16 08:48:13;;;;;;;12.03;9.13;;;28.90;1.00;;;;;;5072429;28;20039;-40
2022/06/16 08:50:57;;;;;;;18.33;10.63;;;28.90;1.00;;;;;;5071925;28;20036;-44
2022/06/16 08:53:35;;;;;;;12.10;10.90;;;29.00;1.00;;;;;;5086352;28;20035;-45
2022/06/16 08:59:31;;;;;;;10.68;9.10;;;29.10;1.00;;;;;;5074587;28;20089;-42
2022/06/16 09:02:08;;;;;;;;;;;29.10;1.00;;;;;;5065852;28;20394;-42
2022/06/16 09:04:40;;;;;;;11.05;10.15;;;29.30;1.00;;;;;;5083426;28;19904;-45
2022/06/16 09:10:50;;;;;;;12.25;10.43;;;29.40;1.00;;;;;;5058113;28;20107;-45
2022/06/16 09:13:37;;;;;;;15.88;11.18;;;29.30;1.00;;;;;;5064260;28;20478;-43
2022/06/16 09:16:28;;;;;;;10.68;9.60;;;29.30;1.00;;;;;;5055908;28;20144;-46
2022/06/16 09:19:17;;;;;;;13.25;11.43;;;29.60;1.00;;;;;;5052169;28;20037;-45
2022/06/16 09:22:20;;;;;;;11.20;10.20;;;29.60;1.00;;;;;;5061483;28;20032;-44
2022/06/16 09:25:07;;;;;;;13.57;12.18;;;29.50;1.00;;;;;;5049876;28;20442;-43
2022/06/16 09:28:14;;;;;;;11.38;9.43;;;29.60;1.00;;;;;;5061635;28;20036;-47
2022/06/16 09:30:43;;;;;;;11.40;10.10;;;29.80;1.00;;;;;;5064285;28;20111;-46
2022/06/16 09:33:17;;;;;;;14.30;10.88;;;30.20;1.00;;;;;;5069134;28;20489;-48
2022/06/16 09:35:52;;;;;;;11.13;10.07;;;30.40;1.00;;;;;;5064476;28;20044;-50
2022/06/16 09:38:41;;;;;;;13.65;10.63;;;29.90;1.00;;;;;;5058633;28;20032;-44
2022/06/16 09:44:18;;;;;;;17.60;13.25;;;30.10;1.00;;;;;;5092711;28;20119;-44
2022/06/16 09:46:52;;;;;;;14.40;12.02;;;29.80;1.00;;;;;;5094314;28;20032;-47
2022/06/16 09:49:22;;;;;;;;;;;29.90;1.00;;;;;;5094484;28;20386;-46
2022/06/16 09:52:00;;;;;;;16.55;11.32;;;30.60;1.00;;;;;;5077320;28;19915;-47
2022/06/16 09:54:34;;;;;;;13.77;12.52;;;30.80;1.00;;;;;;5095660;28;20032;-44
2022/06/16 09:57:12;;;;;;;15.30;13.95;;;31.60;1.00;;;;;;5089666;28;20016;-47
2022/06/16 09:59:50;;;;;;;15.15;11.20;;;31.50;1.00;;;;;;5060551;28;20111;-50
2022/06/16 10:02:22;;;;;;;17.05;15.30;;;31.20;1.00;;;;;;5080753;28;20385;-50
2022/06/16 10:04:53;;;;;;;15.02;10.60;;;31.20;1.00;;;;;;5091490;28;20394;-49
2022/06/16 10:07:25;;;;;;;12.77;11.68;;;31.50;1.00;;;;;;5086915;28;20039;-49
2022/06/16 10:10:12;;;;;;;16.88;13.70;;;31.50;1.00;;;;;;5090683;28;20064;-45
2022/06/16 10:12:56;;;;;;;14.27;12.80;;;31.70;1.00;;;;;;5070760;28;20048;-47
2022/06/16 10:15:28;;;;;;;12.73;11.43;;;31.40;1.00;;;;;;5079854;28;20039;-48
2022/06/16 10:17:54;;;;;;;15.00;13.60;;;31.70;1.00;;;;;;5093332;28;20020;-44
2022/06/16 10:20:21;;;;;;;14.90;13.25;;;31.80;1.00;;;;;;5090652;28;20036;-48
2022/06/16 10:22:56;;;;;;;11.90;10.70;;;32.10;1.00;;;;;;5083308;28;20080;-45
2022/06/16 10:25:28;;;;;;;14.30;12.60;;;32.40;1.00;;;;;;5094927;28;20161;-45
2022/06/16 10:28:00;;;;;;;14.43;12.52;;;32.20;1.00;;;;;;5088315;28;20035;-46
2022/06/16 10:30:32;;;;;;;15.57;13.10;;;32.30;1.00;;;;;;5072202;28;20035;-46
2022/06/16 10:33:08;;;;;;;13.38;12.18;;;32.40;1.00;;;;;;5083131;28;20035;-44
2022/06/16 10:35:35;;;;;;;14.00;12.13;;;32.50;1.00;;;;;;5074408;28;20481;-43
2022/06/16 10:38:02;;;;;;;14.63;13.13;;;32.50;1.00;;;;;;5076226;28;20029;-50
2022/06/16 10:40:31;;;;;;;16.63;14.02;;;32.60;1.00;;;;;;5086545;28;20051;-45
2022/06/16 10:43:03;;;;;;;15.05;13.50;;;32.60;1.00;;;;;;5080239;28;20449;-47
2022/06/16 10:45:32;;;;;;;13.93;12.35;;;32.40;1.00;;;;;;5074475;28;20043;-45
2022/06/16 10:48:04;;;;;;;15.25;13.48;;;32.50;1.00;;;;;;5079748;28;20107;-45
2022/06/16 10:50:39;;;;;;;15.20;13.80;;;32.40;1.00;;;;;;5076580;28;20034;-46
2022/06/16 10:53:25;;;;;;;16.40;13.90;;;32.60;1.00;;;;;;5079357;28;20379;-49
2022/06/16 10:55:56;;;;;;;15.02;13.57;;;32.60;1.00;;;;;;5085257;28;20033;-46
2022/06/16 10:58:30;;;;;;;17.10;13.98;;;32.60;1.00;;;;;;5082243;28;20016;-45
2022/06/16 11:01:17;;;;;;;18.05;13.70;;;32.50;1.00;;;;;;5092816;28;20448;-46
2022/06/16 11:03:50;;;;;;;15.68;14.20;;;32.80;1.00;;;;;;5092468;28;20053;-45
2022/06/16 11:06:23;;;;;;;15.63;14.10;;;32.70;1.00;;;;;;5080570;28;20031;-47
2022/06/16 11:08:58;;;;;;;16.05;14.43;;;33.00;1.00;;;;;;5092570;28;20289;-43
2022/06/16 11:11:33;;;;;;;14.30;12.82;;;33.10;1.00;;;;;;5081776;28;20047;-47
2022/06/16 11:14:01;;;;;;;14.45;12.95;;;33.10;1.00;;;;;;5088167;28;20082;-45
2022/06/16 11:16:33;;;;;;;15.73;14.15;;;33.20;1.00;;;;;;5079290;28;20478;-44
2022/06/16 11:19:06;;;;;;;21.20;19.00;;;33.20;1.00;;;;;;5085393;28;20020;-47
2022/06/16 11:21:33;;;;;;;16.17;14.48;;;33.60;1.00;;;;;;5091614;28;20042;-49
2022/06/16 11:24:06;;;;;;;16.25;14.65;;;34.90;1.00;;;;;;5081214;28;20020;-46
2022/06/16 11:26:35;;;;;;;17.35;15.48;;;34.90;1.00;;;;;;5076409;28;20528;-50
2022/06/16 11:29:25;;;;;;;16.13;14.52;;;35.40;1.00;;;;;;5073403;28;20033;-45
2022/06/16 11:32:02;;;;;;;14.05;12.82;;;36.00;1.00;;;;;;5079559;28;20038;-50
2022/06/16 11:34:29;;;;;;;21.10;19.15;;;36.90;1.00;;;;;;5089808;28;20067;-48
2022/06/16 11:37:00;;;;;;;22.20;17.42;;;37.20;1.00;;;;;;5062105;28;20040;-45
2022/06/16 11:39:56;;;;;;;17.95;16.10;;;36.80;1.00;;;;;;5077596;28;20029;-44
2022/06/16 11:42:55;;;;;;;19.42;17.13;;;36.00;1.00;;;;;;5082545;28;20040;-45
2022/06/16 11:45:24;;;;;;;19.48;15.50;;;35.90;1.00;;;;;;5086192;28;20028;-49
2022/06/16 11:48:20;;;;;;;14.73;12.38;;;35.60;1.00;;;;;;5076796;28;20028;-46
2022/06/16 11:51:00;;;;;;;14.57;13.18;;;35.10;1.00;;;;;;5083231;28;20489;-46
2022/06/16 11:53:29;;;;;;;15.70;14.20;;;34.70;1.00;;;;;;5074411;28;20033;-47
2022/06/16 11:56:04;;;;;;;13.57;12.38;;;34.60;1.00;;;;;;5074479;28;20025;-49
2022/06/16 11:58:30;;;;;;;14.70;13.25;;;34.70;1.00;;;;;;5084396;28;20020;-46
2022/06/16 12:01:16;;;;;;;17.88;13.27;;;34.40;1.00;;;;;;5072172;28;20032;-52
2022/06/16 12:03:45;;;;;;;15.98;14.65;;;34.40;1.00;;;;;;5080437;28;20025;-52
2022/06/16 12:06:25;;;;;;;15.40;13.75;;;34.10;1.00;;;;;;5072201;28;20035;-47
2022/06/16 12:09:02;;;;;;;14.27;12.73;;;34.20;1.00;;;;;;5077513;28;20040;-49
2022/06/16 12:11:42;;;;;;;15.43;13.40;;;34.30;1.00;;;;;;5072510;28;20032;-49
2022/06/16 12:14:15;;;;;;;13.63;12.43;;;34.40;1.00;;;;;;5080052;28;20497;-47
2022/06/16 12:16:40;;;;;;;;;;;34.30;1.00;;;;;;5072159;28;20047;-52
2022/06/16 12:19:30;;;;;;;13.60;12.30;;;34.90;1.00;;;;;;5080346;28;19908;-52
2022/06/16 12:22:14;;;;;;;13.35;12.10;;;34.80;1.00;;;;;;5075393;28;20094;-50
2022/06/16 12:25:01;;;;;;;13.73;12.48;;;34.80;1.00;;;;;;5082763;28;20039;-52
2022/06/16 12:27:36;;;;;;;14.95;11.85;;;34.40;1.00;;;;;;5088255;28;20025;-53
2022/06/16 12:30:14;;;;;;;17.05;13.05;;;34.30;1.00;;;;;;5072644;28;20024;-50
2022/06/16 12:32:51;;;;;;;15.02;13.75;;;34.10;1.00;;;;;;5072623;28;20453;-48
2022/06/16 12:35:44;;;;;;;16.35;14.82;;;34.30;1.00;;;;;;5073813;28;20060;-48
2022/06/16 12:38:16;;;;;;;15.30;12.93;;;34.00;1.00;;;;;;5074008;28;20032;-49
2022/06/16 12:40:49;;;;;;;14.13;12.93;;;34.20;1.00;;;;;;5072613;28;20387;-45
2022/06/16 12:43:26;;;;;;;15.00;13.55;;;34.20;1.00;;;;;;5077460;28;20028;-51
2022/06/16 12:46:01;;;;;;;15.93;14.35;;;33.90;1.00;;;;;;5081294;28;20386;-51
2022/06/16 12:48:36;;;;;;;14.23;12.90;;;34.10;1.00;;;;;;5076740;28;20382;-47
2022/06/16 12:51:06;;;;;;;14.82;13.25;;;34.40;1.00;;;;;;5091491;28;20101;-50
2022/06/16 12:54:01;;;;;;;13.52;12.13;;;34.50;1.00;;;;;;5073556;28;20048;-51
2022/06/16 12:56:39;;;;;;;12.77;11.77;;;34.40;1.00;;;;;;5078046;28;20099;-49
2022/06/16 12:59:21;;;;;;;12.55;11.43;;;34.60;1.00;;;;;;5081847;28;20028;-49
2022/06/16 13:01:51;;;;;;;14.02;11.65;;;34.70;1.00;;;;;;5090608;28;20119;-48
2022/06/16 13:04:25;;;;;;;14.18;12.88;;;35.00;1.00;;;;;;5082074;28;20025;-50
2022/06/16 13:06:52;;;;;;;16.00;14.40;;;34.80;1.00;;;;;;5072688;28;20063;-51
2022/06/16 13:09:23;;;;;;;15.77;12.68;;;34.50;1.00;;;;;;5083410;28;20089;-45
2022/06/16 13:12:01;;;;;;;13.50;12.23;;;34.60;1.00;;;;;;5090493;28;20032;-52
2022/06/16 13:14:27;;;;;;;14.90;13.38;;;34.70;1.00;;;;;;5084252;28;20028;-51
2022/06/16 13:16:54;;;;;;;13.40;12.30;;;34.90;1.00;;;;;;5092657;28;20089;-49
2022/06/16 13:19:24;;;;;;;13.65;11.75;;;35.10;1.00;;;;;;5090594;28;20478;-47
2022/06/16 13:22:00;;;;;;;14.48;12.93;;;35.20;1.00;;;;;;5095076;28;20051;-49
2022/06/16 13:24:43;;;;;;;17.05;15.25;;;35.10;1.00;;;;;;5083106;28;20036;-45
2022/06/16 13:27:14;;;;;;;14.93;13.63;;;34.80;1.00;;;;;;5090100;28;20497;-47
2022/06/16 13:29:56;;;;;;;14.20;12.80;;;34.80;1.00;;;;;;5091741;28;20258;-48
2022/06/16 13:32:49;;;;;;;14.00;12.73;;;34.70;1.00;;;;;;5081774;28;20404;-46
2022/06/16 13:35:15;;;;;;;;;;;35.00;1.00;;;;;;5075760;28;20025;-48
2022/06/16 13:37:46;;;;;;;13.57;12.40;;;35.00;1.00;;;;;;5079955;28;19915;-48
2022/06/16 13:40:26;;;;;;;14.52;13.15;;;34.90;1.00;;;;;;5073991;28;20039;-52
2022/06/16 13:42:51;;;;;;;14.93;13.65;;;34.90;1.00;;;;;;5082163;28;20065;-47
2022/06/16 13:45:20;;;;;;;14.07;12.80;;;34.50;1.00;;;;;;5064786;28;20032;-45
2022/06/16 13:48:11;;;;;;;13.23;11.98;;;34.80;1.00;;;;;;5090596;28;20025;-50
2022/06/16 13:50:58;;;;;;;16.58;11.40;;;35.20;1.00;;;;;;5077910;28;20047;-52
2022/06/16 13:53:26;;;;;;;13.85;11.00;;;35.20;1.00;;;;;;5090380;28;20493;-49
2022/06/16 13:56:05;;;;;;;12.15;11.05;;;35.30;1.00;;;;;;5094213;28;20508;-50
2022/06/16 13:58:34;;;;;;;12.77;11.75;;;35.20;1.00;;;;;;5086041;28;20086;-49
2022/06/16 14:01:15;;;;;;;12.55;11.30;;;35.20;1.00;;;;;;5080315;28;20040;-49